Airfield :
LOGIN :

Register | Disclaimer

   EN    FR    IT 

 










Legend :    VFR   Marginal VFR   IFR   Intensive IFR   Very Intensive IFR
Visi :
Ceiling :
>= 8 km
>= 3000ft
5 to 8 km
1000 to 3000 ft
1500m to 5 km
500 to 1000 ft
800 to 1500m
200 to 500 ft
< 800m
< 200 ft
Symbols :   Thunderstorms  Fog  Heavy snow  Heavy precipitations  Wind > 20 kt
SIGMETs :     Misc.  Thunderstorms  Icing  Turbulence  Mountain Waves  Volcanic Ashes







- Airport Elevation : 44 ft
- IATA code : SOU
- Download approach charts


EGHI - Southampton

CURRENT METAR :
  • 152050Z 23010KT 190V260 9999 FEW025 08/06 Q1003

EXPIRED METARs :
  • 152020Z 21011KT 9999 FEW028 08/06 Q1002
  • 151950Z 20008KT 9999 FEW028 08/06 Q1002
  • 151920Z 23011KT 9000 SCT035 08/07 Q1002
  • 151850Z 22016G28KT 7000 SCT025 09/08 Q1001
  • 151820Z 16009G25KT 110V220 5000 -RA BR BKN004 OVC010 09/09 Q1001

TAF TAF EGHI
Valid from the 15 at 21:00 until the 15 at 23:00 UTC


152004Z 1521/1523 22008KT 9999 SCT025
ATIS : +44 23 8062 7103
No reported NOTAMs for that airfield.
3 SIGMETs reported for the London FIR (EGTT) :
 
Severe mountain waves
EGTT SIGMET 15 VALID 152000/152300 EGRR
EGTT LONDON FIR SEV MTW FCST WI N5500 W00128 - N5144 W00236 - N5154 W00504 - N5427 W00341 - N5500 W00434 - N5500 W00128 FL030/250 STNR WKN=
Severe turbulence
EGTT SIGMET 14 VALID 152000/152300 EGRR
EGTT LONDON FIR SEV TURB FCST WI N5220 W00530 - N5500 W00530 - N5500 E00304 - N5318 E00133 - N5011 W00526 - N5212 W00546 - N5220 W00530 SFC/FL060 MOV NE 30KT NC=
Severe icing
EGTT SIGMET 13 VALID 151830/152230 EGRR
EGTT LONDON FIR SEV ICE FCST WI N5323 E00107 - N5349 W00020 - N5500 W00123 - N5500 W00005 - N5323 E00107 FL030/100 MOV E 15KT NC=



MET'MAP, your aeronautical weather chart ! - Copyright ORBIFLY December 2007 - Disclaimer

ORBIFLY MET'MAP TEAM :

Programming & Development : Alexandra Zaïnal
Concept & Development : Baudouin d'Aumeries
Co-Development & Prog : Marc-Olivier Méhu
Technical & hardware support : Manuel Goepfert

Contact : metmap@orbifly.com




SOURCES & CREDITS :

   NOAA